Gibraltar Airport Gibraltar GI
ICAO: LXGB
IATA: GIB
Category: Medium
Scheduled Services: Yes

Elevation: 15 ft
TransAlt. 6000 ft.

Airport Communications:
APP:122.8
GIB TALKDOWN:130.4
TWR:131.2

LXGB Zoom In..

Runways:

(A) RW 09 length 5016 ft width 151 ft
---- / hdg 91

(B) RW 27 length 5016 ft width 151 ft
---- / hdg 271

Location; LXGB
Day. 07 / Time. 04.50 Zulu
* QNH: 1023
* Temperature: 16° c. 60.8°f.
* Wind from: 090° Speed 15 kn.
Dewpoint: 13° c.
Visibility: 10 km or more.
Clouds: Scattered 2500 ft.

LXGB 070450Z AUTO 09015KT 9999 // SCT025/// 16/13 Q1023


Wind From 090°
Speed 15 kn.

 
 
jpsmedia worldairports.se 2020   terms of use